createdAt,value
2023-02-06T00:01:49.282Z,11.20
2023-02-06T00:04:23.632Z,11.80
2023-02-06T00:06:51.578Z,11.80
2023-02-06T00:09:19.542Z,12.90
2023-02-06T00:11:47.503Z,12.20
2023-02-06T00:14:15.310Z,11.60
2023-02-06T00:16:43.115Z,12.50
2023-02-06T00:19:11.014Z,13.20
2023-02-06T00:21:39.044Z,11.50
2023-02-06T00:24:07.418Z,13.70
2023-02-06T00:26:35.403Z,16.50
2023-02-06T00:29:03.829Z,12.90
2023-02-06T00:31:31.820Z,12.20
2023-02-06T00:34:00.003Z,12.40
2023-02-06T00:36:27.943Z,11.90
2023-02-06T00:38:55.996Z,14.20
2023-02-06T00:41:24.027Z,12.90
2023-02-06T00:43:52.441Z,12.00
2023-02-06T00:46:20.887Z,11.90
2023-02-06T00:48:48.801Z,12.20
2023-02-06T00:51:16.640Z,11.80
2023-02-06T00:53:44.601Z,11.90
2023-02-06T00:56:12.463Z,12.50
2023-02-06T00:58:40.354Z,11.60
2023-02-06T01:01:08.494Z,13.60
2023-02-06T01:03:36.388Z,13.50
2023-02-06T01:06:04.477Z,15.00
2023-02-06T01:08:32.347Z,15.80
2023-02-06T01:11:00.761Z,15.20
2023-02-06T01:13:29.009Z,12.60
2023-02-06T01:15:57.022Z,12.30
2023-02-06T01:18:25.014Z,12.50
2023-02-06T01:20:52.876Z,12.20
2023-02-06T01:23:20.736Z,11.80
2023-02-06T01:25:48.819Z,11.40
2023-02-06T01:28:17.851Z,10.80
2023-02-06T01:30:45.918Z,11.60
2023-02-06T01:33:13.854Z,10.50
2023-02-06T01:35:41.763Z,12.60
2023-02-06T01:38:09.784Z,11.10
2023-02-06T01:40:38.929Z,10.80
2023-02-06T01:43:17.816Z,9.80
2023-02-06T01:45:47.475Z,9.90
2023-02-06T01:48:20.845Z,10.00
2023-02-06T01:50:53.452Z,10.70
2023-02-06T01:53:23.747Z,11.30
2023-02-06T01:55:54.677Z,11.60
2023-02-06T01:58:44.480Z,11.50
2023-02-06T02:01:13.033Z,11.40
2023-02-06T02:03:44.557Z,11.40
2023-02-06T02:06:16.145Z,11.50
2023-02-06T02:08:46.939Z,11.30
2023-02-06T02:11:20.141Z,10.50
2023-02-06T02:13:50.952Z,11.00
2023-02-06T02:16:48.701Z,11.10
2023-02-06T02:19:28.861Z,10.20
2023-02-06T02:21:59.630Z,9.80
2023-02-06T02:24:58.520Z,10.20
2023-02-06T02:27:26.597Z,8.90
2023-02-06T02:30:11.631Z,11.10
2023-02-06T02:33:05.342Z,10.20
2023-02-06T02:35:55.091Z,12.10
2023-02-06T02:38:46.332Z,10.40
2023-02-06T02:41:36.229Z,10.50
2023-02-06T02:44:11.032Z,11.10
2023-02-06T02:46:45.348Z,11.00
2023-02-06T02:49:22.636Z,10.50
2023-02-06T02:51:52.015Z,10.70
2023-02-06T02:54:20.266Z,9.10
2023-02-06T02:56:48.531Z,8.50
2023-02-06T02:59:29.541Z,8.70
2023-02-06T03:02:06.255Z,9.50
2023-02-06T03:04:40.713Z,8.80
2023-02-06T03:07:37.412Z,9.70
2023-02-06T03:10:11.457Z,9.20
2023-02-06T03:13:14.925Z,9.20
2023-02-06T03:15:54.709Z,8.60
2023-02-06T03:18:29.636Z,8.50
2023-02-06T03:21:00.258Z,8.60
2023-02-06T03:23:33.022Z,7.80
2023-02-06T03:26:05.682Z,9.30
2023-02-06T03:28:41.653Z,8.60
2023-02-06T03:31:14.407Z,8.60
2023-02-06T03:33:51.648Z,8.60
2023-02-06T03:36:20.153Z,8.70
2023-02-06T03:38:50.856Z,7.90
2023-02-06T03:41:25.917Z,7.80
2023-02-06T03:43:54.697Z,8.30
2023-02-06T03:46:24.274Z,7.80
2023-02-06T03:48:57.078Z,8.20
2023-02-06T03:51:33.254Z,7.30
2023-02-06T03:54:03.974Z,8.00
2023-02-06T03:56:41.684Z,7.40
2023-02-06T03:59:10.150Z,7.50
2023-02-06T04:01:46.779Z,8.00
2023-02-06T04:04:17.204Z,8.60
2023-02-06T04:06:45.108Z,8.60
2023-02-06T04:09:13.244Z,9.10
2023-02-06T04:11:41.354Z,8.40
2023-02-06T04:14:09.194Z,8.40
2023-02-06T04:16:37.124Z,8.40
2023-02-06T04:19:05.268Z,9.00
2023-02-06T04:21:33.150Z,9.60
2023-02-06T04:24:01.221Z,9.50
2023-02-06T04:26:29.029Z,8.70
2023-02-06T04:28:57.022Z,8.70
2023-02-06T04:31:24.935Z,8.20
2023-02-06T04:33:53.224Z,8.30
2023-02-06T04:36:21.075Z,8.60
2023-02-06T04:38:49.023Z,8.50
2023-02-06T04:41:17.158Z,8.10
2023-02-06T04:43:45.399Z,8.50
2023-02-06T04:46:13.302Z,8.80
2023-02-06T04:48:41.348Z,8.80
2023-02-06T04:51:09.742Z,9.10
2023-02-06T04:53:37.676Z,9.80
2023-02-06T04:56:07.602Z,9.40
2023-02-06T04:58:35.908Z,9.30
2023-02-06T05:01:04.494Z,9.50
2023-02-06T05:03:33.133Z,9.00
2023-02-06T05:06:03.074Z,8.60
2023-02-06T05:08:31.550Z,9.50
2023-02-06T05:10:59.380Z,9.80
2023-02-06T05:13:27.382Z,9.30
2023-02-06T05:15:57.951Z,9.50
2023-02-06T05:18:25.901Z,8.70
2023-02-06T05:20:53.700Z,9.50
2023-02-06T05:23:22.697Z,9.00
2023-02-06T05:25:50.598Z,9.00
2023-02-06T05:28:18.798Z,9.50
2023-02-06T05:30:47.263Z,9.20
2023-02-06T05:33:15.220Z,9.50
2023-02-06T05:35:46.994Z,8.20
2023-02-06T05:38:14.959Z,9.40
2023-02-06T05:40:42.821Z,9.70
2023-02-06T05:43:15.334Z,9.20
2023-02-06T05:45:43.151Z,9.30
2023-02-06T05:48:11.021Z,9.30
2023-02-06T05:50:38.951Z,9.60
2023-02-06T05:53:17.535Z,9.00
2023-02-06T05:55:45.423Z,9.50
2023-02-06T05:58:13.465Z,8.90
2023-02-06T06:00:41.396Z,8.40
2023-02-06T06:03:09.485Z,9.60
2023-02-06T06:05:37.694Z,8.70
2023-02-06T06:08:05.750Z,9.00
2023-02-06T06:10:33.715Z,8.70
2023-02-06T06:13:01.581Z,8.80
2023-02-06T06:15:29.459Z,9.10
2023-02-06T06:17:57.353Z,8.10
2023-02-06T06:20:25.581Z,9.00
2023-02-06T06:22:53.472Z,8.90
2023-02-06T06:25:21.337Z,9.00
2023-02-06T06:27:49.319Z,9.30
2023-02-06T06:30:17.506Z,9.60
2023-02-06T06:32:45.338Z,9.20
2023-02-06T06:35:13.208Z,9.10
2023-02-06T06:37:41.111Z,9.30
2023-02-06T06:40:10.140Z,8.90
2023-02-06T06:42:38.113Z,9.00
2023-02-06T06:45:06.535Z,8.30
2023-02-06T06:47:34.539Z,8.30
2023-02-06T06:50:02.471Z,8.10
2023-02-06T06:52:30.332Z,8.30
2023-02-06T06:54:58.210Z,8.60
2023-02-06T06:57:26.072Z,8.40
2023-02-06T06:59:54.077Z,8.20
2023-02-06T07:02:22.000Z,8.20
2023-02-06T07:04:50.074Z,8.10
2023-02-06T07:07:17.943Z,7.80
2023-02-06T07:09:45.995Z,8.10
2023-02-06T07:12:14.045Z,7.80
2023-02-06T07:14:41.850Z,8.10
2023-02-06T07:17:09.797Z,8.20
2023-02-06T07:19:37.853Z,8.00
2023-02-06T07:22:05.983Z,8.60
2023-02-06T07:24:33.760Z,7.90
2023-02-06T07:27:01.605Z,7.90
2023-02-06T07:29:29.443Z,8.20
2023-02-06T07:31:57.503Z,8.10
2023-02-06T07:34:25.554Z,8.50
2023-02-06T07:36:53.375Z,8.50
2023-02-06T07:39:21.345Z,8.10
2023-02-06T07:41:50.924Z,8.10
2023-02-06T07:44:20.196Z,8.10
2023-02-06T07:46:48.048Z,8.20
2023-02-06T07:49:16.020Z,8.10
2023-02-06T07:51:45.216Z,8.20
2023-02-06T07:54:13.232Z,8.10
2023-02-06T07:56:41.659Z,7.70
2023-02-06T07:59:09.834Z,8.00
2023-02-06T08:01:40.932Z,7.90
2023-02-06T08:04:10.945Z,7.80
2023-02-06T08:06:42.497Z,7.40
2023-02-06T08:09:17.098Z,7.60
2023-02-06T08:11:48.160Z,7.80
2023-02-06T08:14:16.028Z,11.20
2023-02-06T08:16:44.154Z,12.60
2023-02-06T08:19:12.375Z,9.60
2023-02-06T08:21:40.205Z,8.90
2023-02-06T08:24:11.828Z,8.80
2023-02-06T08:26:40.083Z,8.00
2023-02-06T08:29:08.352Z,8.00
2023-02-06T08:31:41.518Z,7.40
2023-02-06T08:34:12.357Z,7.80
2023-02-06T08:36:43.127Z,7.30
2023-02-06T08:39:14.784Z,7.40
2023-02-06T08:41:43.949Z,7.60
2023-02-06T08:44:16.131Z,8.00
2023-02-06T08:46:45.845Z,7.90
2023-02-06T08:49:16.501Z,7.50
2023-02-06T08:51:44.753Z,7.40
2023-02-06T08:54:15.837Z,7.70
2023-02-06T08:56:44.308Z,7.90
2023-02-06T08:59:13.958Z,7.50
2023-02-06T09:01:42.676Z,7.50
2023-02-06T09:04:12.045Z,7.20
2023-02-06T09:06:43.537Z,8.00
2023-02-06T09:09:12.802Z,7.90
2023-02-06T09:11:41.669Z,7.60
2023-02-06T09:14:14.647Z,7.90
2023-02-06T09:16:43.193Z,8.10
2023-02-06T09:19:11.866Z,8.00
2023-02-06T09:21:39.988Z,7.30
2023-02-06T09:24:09.319Z,7.70
2023-02-06T09:26:53.384Z,7.50
2023-02-06T09:29:25.568Z,7.50
2023-02-06T09:31:53.423Z,7.70
2023-02-06T09:34:21.721Z,7.50
2023-02-06T09:36:50.202Z,7.60
2023-02-06T09:39:18.079Z,7.00
2023-02-06T09:42:28.663Z,7.30
2023-02-06T09:45:02.780Z,7.30
2023-02-06T09:47:34.813Z,6.90
2023-02-06T09:50:09.207Z,7.30
2023-02-06T09:52:58.996Z,6.90
2023-02-06T09:55:36.067Z,7.00
2023-02-06T09:58:33.072Z,7.00
2023-02-06T10:01:15.974Z,7.70
2023-02-06T10:03:55.125Z,7.70
2023-02-06T10:06:29.938Z,8.00
2023-02-06T10:08:57.905Z,7.70
2023-02-06T10:11:41.116Z,7.70
2023-02-06T10:14:22.129Z,7.60
2023-02-06T10:16:58.381Z,7.70
2023-02-06T10:19:49.506Z,8.50
2023-02-06T10:22:33.932Z,7.70
2023-02-06T10:25:08.222Z,8.30
2023-02-06T10:27:40.535Z,7.80
2023-02-06T10:30:22.451Z,7.70
2023-02-06T10:33:25.647Z,8.40
2023-02-06T10:36:22.627Z,7.90
2023-02-06T10:39:09.303Z,8.50
2023-02-06T10:41:53.053Z,8.70
2023-02-06T10:44:51.132Z,7.70
2023-02-06T10:47:35.897Z,8.80
2023-02-06T10:52:48.952Z,8.10
2023-02-06T10:55:24.980Z,7.30
2023-02-06T10:58:17.055Z,7.90
2023-02-06T11:00:46.861Z,8.10
2023-02-06T11:03:21.611Z,7.60
2023-02-06T11:05:50.514Z,7.60
2023-02-06T11:08:40.490Z,7.90
2023-02-06T11:11:18.124Z,8.40
2023-02-06T11:13:51.265Z,8.50
2023-02-06T11:16:26.765Z,8.30
2023-02-06T11:18:59.395Z,7.90
2023-02-06T11:22:09.490Z,7.50
2023-02-06T11:24:38.932Z,7.50
2023-02-06T11:27:20.422Z,8.30
2023-02-06T11:29:52.213Z,7.30
2023-02-06T11:32:36.090Z,7.90
2023-02-06T11:35:21.803Z,7.90
2023-02-06T11:37:54.131Z,8.10
2023-02-06T11:40:27.884Z,7.60
2023-02-06T11:43:16.305Z,7.80
2023-02-06T11:45:45.422Z,7.80
2023-02-06T11:48:37.171Z,7.60
2023-02-06T11:51:06.403Z,7.50
2023-02-06T11:53:35.301Z,7.80
2023-02-06T11:56:03.115Z,7.80
2023-02-06T11:58:33.785Z,8.10
2023-02-06T12:01:06.090Z,8.30
2023-02-06T12:03:36.087Z,8.30
2023-02-06T12:06:08.494Z,8.10
2023-02-06T12:08:50.230Z,8.40
2023-02-06T12:11:24.710Z,8.40
2023-02-06T12:14:00.580Z,8.40
2023-02-06T12:16:29.793Z,7.70
2023-02-06T12:18:59.991Z,8.50
2023-02-06T12:21:55.841Z,7.50
2023-02-06T12:24:35.152Z,7.40
2023-02-06T12:27:11.521Z,7.50
2023-02-06T12:29:56.921Z,7.40
2023-02-06T12:32:35.012Z,7.10
2023-02-06T12:35:26.773Z,7.60
2023-02-06T12:38:00.404Z,7.10
2023-02-06T12:40:40.813Z,7.30
2023-02-06T12:43:12.692Z,6.80
2023-02-06T12:45:56.586Z,6.90
2023-02-06T12:48:44.947Z,7.40
2023-02-06T12:51:25.925Z,6.80
2023-02-06T12:53:58.821Z,7.10
2023-02-06T12:56:59.560Z,6.90
2023-02-06T12:59:57.977Z,7.20
2023-02-06T13:02:38.541Z,6.60
2023-02-06T13:05:22.123Z,7.10
2023-02-06T13:07:51.540Z,7.10
2023-02-06T13:10:24.497Z,6.80
2023-02-06T13:12:54.772Z,6.70
2023-02-06T13:15:26.059Z,6.50
2023-02-06T13:17:55.764Z,6.30
2023-02-06T13:20:25.836Z,6.70
2023-02-06T13:22:54.924Z,6.50
2023-02-06T13:25:25.942Z,6.40
2023-02-06T13:27:55.580Z,6.00
2023-02-06T13:30:29.665Z,6.20
2023-02-06T13:32:58.960Z,5.90
2023-02-06T13:35:30.115Z,6.30
2023-02-06T13:38:30.066Z,6.00
2023-02-06T13:41:16.958Z,6.20
2023-02-06T13:43:48.369Z,5.80
2023-02-06T13:46:20.137Z,5.60
2023-02-06T13:48:54.289Z,5.50
2023-02-06T13:54:22.004Z,5.60
2023-02-06T13:56:52.852Z,5.70
2023-02-06T13:59:43.840Z,5.60
2023-02-06T14:02:13.511Z,5.80
2023-02-06T14:04:45.221Z,5.60
2023-02-06T14:07:45.063Z,6.00
2023-02-06T14:10:28.880Z,6.00
2023-02-06T14:13:04.799Z,6.00
2023-02-06T14:15:38.813Z,6.00
2023-02-06T14:18:29.332Z,5.70
2023-02-06T14:21:16.388Z,5.80
2023-02-06T14:24:16.188Z,5.80
2023-02-06T14:27:23.465Z,5.90
2023-02-06T14:29:57.208Z,5.80
2023-02-06T14:32:47.756Z,5.90
2023-02-06T14:35:39.939Z,5.90
2023-02-06T14:38:26.246Z,5.70
2023-02-06T14:40:57.416Z,6.10
2023-02-06T14:43:34.607Z,5.90
2023-02-06T14:46:51.345Z,6.00
2023-02-06T14:49:38.131Z,6.00
2023-02-06T14:52:06.454Z,6.50
2023-02-06T14:54:38.288Z,6.20
2023-02-06T14:57:16.381Z,6.50
2023-02-06T15:00:01.496Z,6.10
2023-02-06T15:02:35.567Z,6.00
2023-02-06T15:07:35.735Z,5.80
2023-02-06T15:10:07.159Z,6.20
2023-02-06T15:12:35.747Z,6.90
2023-02-06T15:15:21.359Z,6.80
2023-02-06T15:18:18.915Z,6.70
2023-02-06T15:20:54.978Z,6.70
2023-02-06T15:23:55.572Z,6.80
2023-02-06T15:26:47.888Z,6.60
2023-02-06T15:29:19.537Z,6.10
2023-02-06T15:31:53.180Z,5.90
2023-02-06T15:34:24.353Z,6.20
2023-02-06T15:36:52.965Z,6.50
2023-02-06T15:39:21.207Z,6.60
2023-02-06T15:41:51.811Z,6.60
2023-02-06T15:44:39.992Z,6.30
2023-02-06T15:47:13.560Z,7.00
2023-02-06T15:49:44.429Z,7.40
2023-02-06T15:52:14.194Z,8.50
2023-02-06T15:54:44.992Z,8.70
2023-02-06T15:57:28.736Z,10.30
2023-02-06T15:59:57.039Z,9.20
2023-02-06T16:02:33.147Z,8.60
2023-02-06T16:05:02.665Z,8.30
2023-02-06T16:07:35.578Z,7.80
2023-02-06T16:10:09.079Z,8.00
2023-02-06T16:12:40.976Z,8.80
2023-02-06T16:15:27.343Z,8.30
2023-02-06T16:17:56.797Z,7.30
2023-02-06T16:20:33.570Z,7.10
2023-02-06T16:23:33.450Z,8.00
2023-02-06T16:26:25.843Z,7.50
2023-02-06T16:29:10.206Z,9.10
2023-02-06T16:31:42.193Z,7.60
2023-02-06T16:34:33.847Z,8.10
2023-02-06T16:37:02.311Z,7.40
2023-02-06T16:39:30.008Z,9.80
2023-02-06T16:41:58.706Z,11.60
2023-02-06T16:44:42.969Z,8.70
2023-02-06T16:47:14.986Z,8.20
2023-02-06T16:49:43.321Z,8.00
2023-02-06T16:52:18.580Z,8.00
2023-02-06T16:54:46.972Z,7.70
2023-02-06T16:57:35.441Z,9.00
2023-02-06T17:00:16.273Z,9.10
2023-02-06T17:02:44.962Z,7.80
2023-02-06T17:05:13.944Z,7.40
2023-02-06T17:07:42.413Z,9.00
2023-02-06T17:10:13.596Z,8.00
2023-02-06T17:12:41.731Z,8.40
2023-02-06T17:15:10.664Z,8.40
2023-02-06T17:17:38.385Z,8.00
2023-02-06T17:20:12.140Z,7.80
2023-02-06T17:22:39.868Z,8.10
2023-02-06T17:25:09.634Z,9.10
2023-02-06T17:27:38.695Z,11.60
2023-02-06T17:30:06.999Z,8.40
2023-02-06T17:32:34.742Z,7.80
2023-02-06T17:35:02.715Z,7.70
2023-02-06T17:37:30.429Z,7.40
2023-02-06T17:39:58.256Z,7.40
2023-02-06T17:42:26.281Z,6.20
2023-02-06T17:44:54.082Z,7.30
2023-02-06T17:47:21.769Z,7.20
2023-02-06T17:49:49.574Z,8.60
2023-02-06T17:52:18.286Z,8.30
2023-02-06T17:54:46.276Z,7.80
2023-02-06T17:57:14.082Z,8.10
2023-02-06T17:59:41.855Z,7.80
2023-02-06T18:02:13.856Z,8.30
2023-02-06T18:04:41.655Z,8.10
2023-02-06T18:07:09.414Z,7.60
2023-02-06T18:09:37.261Z,8.10
2023-02-06T18:12:05.249Z,8.70
2023-02-06T18:14:35.372Z,8.50
2023-02-06T18:17:06.274Z,8.20
2023-02-06T18:19:41.717Z,8.80
2023-02-06T18:22:18.523Z,8.30
2023-02-06T18:24:47.642Z,7.70
2023-02-06T18:27:16.958Z,8.50
2023-02-06T18:29:50.236Z,8.20
2023-02-06T18:32:19.505Z,7.80
2023-02-06T18:34:47.988Z,8.10
2023-02-06T18:37:15.992Z,8.30
2023-02-06T18:39:43.723Z,8.50
2023-02-06T18:42:28.450Z,7.90
2023-02-06T18:44:56.231Z,8.20
2023-02-06T18:47:24.107Z,8.20
2023-02-06T18:49:51.843Z,8.30
2023-02-06T18:52:19.742Z,8.20
2023-02-06T18:54:48.782Z,8.60
2023-02-06T18:57:17.021Z,8.80
2023-02-06T18:59:44.922Z,8.80
2023-02-06T19:02:12.685Z,8.10
2023-02-06T19:04:40.582Z,7.90
2023-02-06T19:07:08.965Z,8.00
2023-02-06T19:09:37.780Z,8.70
2023-02-06T19:12:06.063Z,8.50
2023-02-06T19:14:34.079Z,8.10
2023-02-06T19:17:01.828Z,8.30
2023-02-06T19:19:29.548Z,8.00
2023-02-06T19:21:57.774Z,8.10
2023-02-06T19:24:26.229Z,7.60
2023-02-06T19:26:53.997Z,8.10
2023-02-06T19:29:34.692Z,7.80
2023-02-06T19:32:06.079Z,8.10
2023-02-06T19:34:36.385Z,8.60
2023-02-06T19:37:08.971Z,8.90
2023-02-06T19:39:40.083Z,7.90
2023-02-06T19:42:10.099Z,8.30
2023-02-06T19:44:37.981Z,8.80
2023-02-06T19:47:05.746Z,9.20
2023-02-06T19:49:33.795Z,8.10
2023-02-06T19:52:01.879Z,8.10
2023-02-06T19:54:30.098Z,8.80
2023-02-06T19:56:58.222Z,8.30
2023-02-06T19:59:28.945Z,8.10
2023-02-06T20:01:59.991Z,7.50
2023-02-06T20:04:34.621Z,7.80
2023-02-06T20:07:02.943Z,7.20
2023-02-06T20:09:31.015Z,7.30
2023-02-06T20:11:59.256Z,8.20
2023-02-06T20:14:27.275Z,7.80
2023-02-06T20:16:55.142Z,8.00
2023-02-06T20:19:26.860Z,7.80
2023-02-06T20:21:58.602Z,7.10
2023-02-06T20:24:30.200Z,7.20
2023-02-06T20:27:01.112Z,7.00
2023-02-06T20:29:32.990Z,7.70
2023-02-06T20:32:01.536Z,7.30
2023-02-06T20:34:29.817Z,8.10
2023-02-06T20:36:59.343Z,7.80
2023-02-06T20:39:28.744Z,8.00
2023-02-06T20:41:57.293Z,8.20
2023-02-06T20:44:25.070Z,8.50
2023-02-06T20:46:53.170Z,8.60
2023-02-06T20:49:26.619Z,8.40
2023-02-06T20:51:55.622Z,9.20
2023-02-06T20:54:25.000Z,9.10
2023-02-06T20:56:53.393Z,8.80
2023-02-06T20:59:21.706Z,7.70
2023-02-06T21:01:49.657Z,8.10
2023-02-06T21:04:19.070Z,8.80
2023-02-06T21:06:50.878Z,8.40
2023-02-06T21:09:19.161Z,8.70
2023-02-06T21:11:49.224Z,9.10
2023-02-06T21:14:18.136Z,9.40
2023-02-06T21:16:46.643Z,9.60
2023-02-06T21:19:17.682Z,9.30
2023-02-06T21:21:46.534Z,9.20
2023-02-06T21:24:16.206Z,9.20
2023-02-06T21:26:44.989Z,8.90
2023-02-06T21:29:14.492Z,8.50
2023-02-06T21:31:43.496Z,8.60
2023-02-06T21:34:22.098Z,8.70
2023-02-06T21:36:50.156Z,8.50
2023-02-06T21:39:22.300Z,8.30
2023-02-06T21:41:53.926Z,8.70
2023-02-06T21:44:24.038Z,8.60
2023-02-06T21:46:53.029Z,8.80
2023-02-06T21:49:21.064Z,8.90
2023-02-06T21:51:50.346Z,8.70
2023-02-06T21:54:18.431Z,9.60
2023-02-06T21:56:46.232Z,8.10
2023-02-06T21:59:13.979Z,8.40
2023-02-06T22:01:41.905Z,8.10
2023-02-06T22:04:11.419Z,7.70
2023-02-06T22:06:39.575Z,8.20
2023-02-06T22:09:11.166Z,9.10
2023-02-06T22:11:39.904Z,8.80
2023-02-06T22:14:12.373Z,9.00
2023-02-06T22:16:41.205Z,8.30
2023-02-06T22:19:10.601Z,7.60
2023-02-06T22:21:38.897Z,8.80
2023-02-06T22:24:08.464Z,8.80
2023-02-06T22:26:38.890Z,8.30
2023-02-06T22:29:10.002Z,9.00
2023-02-06T22:31:40.773Z,8.80
2023-02-06T22:34:13.723Z,8.30
2023-02-06T22:36:42.689Z,8.70
2023-02-06T22:39:12.697Z,8.10
2023-02-06T22:41:43.528Z,8.20
2023-02-06T22:44:18.156Z,7.90
2023-02-06T22:46:51.557Z,8.90
2023-02-06T22:49:20.996Z,8.10
2023-02-06T22:51:48.839Z,8.00
2023-02-06T22:54:16.620Z,8.50
2023-02-06T22:56:45.562Z,9.30
2023-02-06T22:59:25.159Z,9.40
2023-02-06T23:01:57.931Z,9.60
2023-02-06T23:04:31.179Z,8.90
2023-02-06T23:06:58.935Z,8.20
2023-02-06T23:09:30.327Z,7.80
2023-02-06T23:11:59.681Z,8.70
2023-02-06T23:14:29.952Z,8.70
2023-02-06T23:17:00.031Z,8.30
2023-02-06T23:19:29.170Z,9.20
2023-02-06T23:21:56.931Z,7.40
2023-02-06T23:24:24.862Z,8.20
2023-02-06T23:26:53.587Z,8.10
2023-02-06T23:29:23.836Z,8.30
2023-02-06T23:31:51.760Z,8.50
2023-02-06T23:34:23.777Z,9.20
2023-02-06T23:36:53.103Z,7.50
2023-02-06T23:39:21.596Z,7.80
2023-02-06T23:41:49.442Z,8.20
2023-02-06T23:44:17.287Z,7.90
2023-02-06T23:46:45.017Z,7.50
2023-02-06T23:49:12.843Z,7.20
2023-02-06T23:51:40.555Z,7.50
2023-02-06T23:54:09.230Z,7.70
2023-02-06T23:56:37.245Z,7.50
2023-02-06T23:59:06.260Z,7.20
